createdAt,value
2022-08-20T00:00:18.425Z,77.57
2022-08-20T00:02:54.111Z,76.69
2022-08-20T00:05:29.869Z,76.82
2022-08-20T00:07:57.590Z,76.94
2022-08-20T00:10:27.268Z,76.55
2022-08-20T00:12:55.624Z,76.92
2022-08-20T00:15:26.615Z,76.42
2022-08-20T00:17:53.554Z,76.11
2022-08-20T00:20:23.614Z,76.14
2022-08-20T00:22:50.546Z,76.38
2022-08-20T00:25:19.066Z,76.07
2022-08-20T00:27:45.805Z,76.02
2022-08-20T00:30:14.373Z,76.01
2022-08-20T00:32:49.926Z,75.82
2022-08-20T00:35:19.046Z,75.80
2022-08-20T00:37:46.738Z,75.81
2022-08-20T00:40:22.185Z,75.88
2022-08-20T00:42:53.825Z,75.50
2022-08-20T00:45:21.599Z,75.44
2022-08-20T00:47:51.385Z,76.05
2022-08-20T00:50:23.957Z,75.52
2022-08-20T00:52:53.151Z,76.23
2022-08-20T00:55:29.713Z,76.10
2022-08-20T00:58:02.136Z,76.17
2022-08-20T01:00:37.393Z,76.34
2022-08-20T01:03:09.159Z,76.56
2022-08-20T01:05:37.761Z,77.15
2022-08-20T01:08:05.380Z,77.15
2022-08-20T01:10:37.840Z,77.64
2022-08-20T01:13:11.558Z,77.63
2022-08-20T01:15:43.455Z,77.73
2022-08-20T01:18:16.478Z,76.76
2022-08-20T01:20:49.642Z,75.30
2022-08-20T01:23:21.252Z,73.84
2022-08-20T01:25:55.872Z,74.41
2022-08-20T01:28:26.693Z,74.31
2022-08-20T01:30:54.142Z,74.23
2022-08-20T01:33:22.948Z,75.14
2022-08-20T01:35:51.474Z,74.64
2022-08-20T01:38:18.515Z,75.50
2022-08-20T01:41:15.755Z,75.40
2022-08-20T01:43:42.706Z,75.13
2022-08-20T01:46:11.492Z,74.81
2022-08-20T01:48:39.716Z,74.60
2022-08-20T01:51:16.828Z,74.03
2022-08-20T01:53:48.038Z,74.17
2022-08-20T01:56:19.827Z,73.95
2022-08-20T01:58:54.819Z,73.88
2022-08-20T02:01:39.045Z,73.94
2022-08-20T02:04:15.657Z,74.19
2022-08-20T02:06:57.197Z,73.74
2022-08-20T02:09:30.582Z,73.18
2022-08-20T02:11:59.089Z,73.41
2022-08-20T02:14:27.490Z,73.18
2022-08-20T02:16:55.704Z,73.28
2022-08-20T02:19:27.561Z,73.20
2022-08-20T02:21:59.347Z,72.89
2022-08-20T02:24:26.432Z,72.42
2022-08-20T02:26:54.553Z,71.86
2022-08-20T02:29:22.224Z,71.76
2022-08-20T02:32:25.029Z,72.02
2022-08-20T02:34:36.101Z,71.72
2022-08-20T02:37:05.545Z,71.38
2022-08-20T02:39:33.629Z,71.45
2022-08-20T02:42:00.805Z,70.93
2022-08-20T02:44:27.608Z,71.44
2022-08-20T02:46:54.845Z,70.92
2022-08-20T02:49:21.668Z,71.01
2022-08-20T02:51:48.504Z,70.77
2022-08-20T02:54:16.203Z,70.87
2022-08-20T02:56:43.052Z,70.57
2022-08-20T02:59:10.370Z,70.80
2022-08-20T03:01:46.717Z,70.22
2022-08-20T03:04:26.181Z,70.48
2022-08-20T03:06:53.055Z,70.27
2022-08-20T03:09:19.938Z,70.18
2022-08-20T03:11:46.768Z,69.51
2022-08-20T03:14:13.647Z,69.37
2022-08-20T03:16:40.471Z,69.40
2022-08-20T03:19:07.280Z,68.93
2022-08-20T03:21:35.078Z,69.40
2022-08-20T03:24:02.018Z,69.14
2022-08-20T03:26:28.863Z,69.97
2022-08-20T03:28:55.711Z,69.96
2022-08-20T03:31:22.640Z,69.67
2022-08-20T03:33:53.302Z,69.74
2022-08-20T03:36:27.746Z,69.73
2022-08-20T03:39:01.095Z,69.00
2022-08-20T03:41:28.260Z,69.26
2022-08-20T03:43:55.128Z,69.18
2022-08-20T03:46:23.390Z,69.45
2022-08-20T03:48:59.850Z,68.85
2022-08-20T03:51:34.387Z,68.90
2022-08-20T03:54:19.178Z,68.92
2022-08-20T03:56:46.253Z,69.13
2022-08-20T03:59:13.096Z,69.05
2022-08-20T04:01:45.031Z,69.09
2022-08-20T04:04:14.779Z,68.77
2022-08-20T04:06:42.894Z,68.70
2022-08-20T04:09:11.843Z,68.86
2022-08-20T04:11:41.219Z,68.79
2022-08-20T04:14:09.392Z,68.63
2022-08-20T04:16:39.524Z,69.07
2022-08-20T04:19:07.204Z,69.03
2022-08-20T04:21:36.649Z,68.87
2022-08-20T04:24:05.450Z,69.08
2022-08-20T04:26:32.700Z,69.25
2022-08-20T04:28:59.592Z,68.93
2022-08-20T04:31:26.451Z,69.19
2022-08-20T04:33:54.071Z,69.25
2022-08-20T04:36:20.800Z,69.67
2022-08-20T04:38:50.198Z,69.44
2022-08-20T04:41:23.266Z,69.54
2022-08-20T04:43:52.525Z,69.70
2022-08-20T04:46:20.482Z,69.51
2022-08-20T04:48:48.507Z,69.44
2022-08-20T04:51:16.164Z,69.63
2022-08-20T04:53:43.333Z,69.52
2022-08-20T04:56:10.229Z,69.81
2022-08-20T04:58:39.204Z,69.85
2022-08-20T05:01:09.531Z,69.62
2022-08-20T05:03:39.174Z,69.87
2022-08-20T05:06:09.028Z,70.09
2022-08-20T05:08:37.137Z,70.32
2022-08-20T05:11:32.919Z,70.11
2022-08-20T05:13:51.706Z,70.40
2022-08-20T05:16:19.259Z,70.17
2022-08-20T05:18:46.427Z,70.10
2022-08-20T05:21:20.057Z,70.13
2022-08-20T05:23:47.438Z,69.78
2022-08-20T05:26:14.619Z,69.82
2022-08-20T05:28:57.327Z,69.64
2022-08-20T05:31:32.025Z,69.92
2022-08-20T05:34:06.084Z,69.47
2022-08-20T05:36:32.918Z,68.97
2022-08-20T05:38:59.705Z,68.87
2022-08-20T05:41:28.410Z,69.15
2022-08-20T05:44:00.318Z,69.25
2022-08-20T05:46:27.595Z,69.10
2022-08-20T05:48:54.403Z,69.20
2022-08-20T05:51:21.223Z,68.79
2022-08-20T05:53:48.204Z,69.23
2022-08-20T05:56:15.366Z,69.06
2022-08-20T05:58:42.103Z,69.58
2022-08-20T06:01:09.048Z,69.21
2022-08-20T06:03:36.016Z,69.63
2022-08-20T06:06:04.459Z,69.02
2022-08-20T06:08:45.378Z,69.29
2022-08-20T06:11:12.144Z,69.80
2022-08-20T06:13:39.041Z,69.63
2022-08-20T06:16:06.911Z,69.56
2022-08-20T06:18:35.057Z,69.75
2022-08-20T06:21:01.992Z,70.31
2022-08-20T06:23:56.375Z,69.63
2022-08-20T06:26:15.877Z,68.96
2022-08-20T06:28:51.520Z,69.27
2022-08-20T06:31:21.441Z,69.25
2022-08-20T06:33:48.228Z,69.13
2022-08-20T06:36:15.131Z,68.77
2022-08-20T06:38:46.123Z,69.23
2022-08-20T06:41:13.706Z,68.60
2022-08-20T06:43:40.770Z,68.53
2022-08-20T06:46:08.013Z,68.31
2022-08-20T06:48:35.363Z,68.21
2022-08-20T06:51:02.274Z,67.81
2022-08-20T06:53:29.321Z,68.17
2022-08-20T06:55:58.114Z,67.12
2022-08-20T06:58:36.989Z,67.29
2022-08-20T07:01:11.042Z,66.95
2022-08-20T07:03:40.431Z,66.91
2022-08-20T07:06:16.104Z,67.15
2022-08-20T07:08:44.087Z,67.44
2022-08-20T07:11:11.363Z,67.64
2022-08-20T07:13:38.395Z,66.81
2022-08-20T07:16:05.661Z,66.92
2022-08-20T07:18:32.686Z,66.87
2022-08-20T07:20:59.587Z,66.97
2022-08-20T07:23:27.015Z,66.65
2022-08-20T07:25:54.528Z,66.89
2022-08-20T07:28:24.300Z,67.21
2022-08-20T07:30:56.798Z,66.94
2022-08-20T07:33:29.203Z,67.18
2022-08-20T07:36:00.806Z,67.04
2022-08-20T07:38:28.790Z,66.79
2022-08-20T07:41:03.980Z,66.34
2022-08-20T07:43:31.317Z,65.46
2022-08-20T07:46:00.206Z,65.98
2022-08-20T07:48:29.721Z,65.75
2022-08-20T07:51:01.216Z,65.90
2022-08-20T07:53:31.141Z,64.88
2022-08-20T07:56:01.952Z,65.07
2022-08-20T07:58:33.209Z,65.06
2022-08-20T08:01:01.181Z,64.68
2022-08-20T08:03:39.385Z,63.42
2022-08-20T08:06:15.102Z,64.02
2022-08-20T08:08:45.117Z,63.63
2022-08-20T08:11:12.293Z,63.72
2022-08-20T08:13:41.351Z,62.73
2022-08-20T08:16:10.373Z,62.26
2022-08-20T08:18:51.623Z,61.27
2022-08-20T08:21:18.905Z,61.29
2022-08-20T08:23:45.790Z,61.50
2022-08-20T08:26:15.941Z,61.50
2022-08-20T08:28:46.125Z,61.09
2022-08-20T08:31:13.590Z,60.90
2022-08-20T08:33:41.838Z,61.45
2022-08-20T08:36:12.026Z,60.84
2022-08-20T08:38:41.554Z,60.89
2022-08-20T08:41:30.892Z,61.13
2022-08-20T08:44:08.745Z,61.80
2022-08-20T08:46:44.846Z,61.27
2022-08-20T08:49:16.470Z,60.97
2022-08-20T08:51:52.070Z,60.98
2022-08-20T08:54:22.166Z,61.14
2022-08-20T08:56:50.532Z,60.78
2022-08-20T08:59:19.061Z,60.76
2022-08-20T09:02:06.458Z,60.63
2022-08-20T09:04:38.083Z,60.50
2022-08-20T09:07:08.881Z,59.51
2022-08-20T09:09:38.871Z,59.67
2022-08-20T09:12:10.012Z,59.68
2022-08-20T09:14:38.081Z,59.70
2022-08-20T09:17:05.918Z,59.68
2022-08-20T09:19:33.044Z,60.00
2022-08-20T09:21:59.842Z,59.49
2022-08-20T09:24:26.802Z,59.34
2022-08-20T09:26:53.603Z,59.37
2022-08-20T09:29:20.375Z,59.34
2022-08-20T09:31:48.075Z,58.70
2022-08-20T09:34:15.557Z,58.75
2022-08-20T09:36:42.366Z,58.91
2022-08-20T09:39:09.288Z,59.05
2022-08-20T09:41:36.047Z,58.94
2022-08-20T09:44:03.098Z,58.76
2022-08-20T09:46:30.068Z,57.94
2022-08-20T09:48:56.808Z,57.47
2022-08-20T09:51:23.777Z,57.57
2022-08-20T09:53:51.192Z,57.72
2022-08-20T09:56:18.320Z,57.32
2022-08-20T09:58:51.108Z,57.33
2022-08-20T10:01:20.691Z,56.82
2022-08-20T10:03:49.212Z,57.20
2022-08-20T10:06:18.440Z,56.79
2022-08-20T10:08:46.163Z,56.45
2022-08-20T10:11:13.140Z,56.35
2022-08-20T10:13:40.039Z,56.15
2022-08-20T10:16:07.389Z,56.21
2022-08-20T10:18:35.313Z,56.12
2022-08-20T10:21:02.212Z,56.04
2022-08-20T10:23:29.011Z,55.02
2022-08-20T10:25:55.903Z,55.32
2022-08-20T10:28:22.654Z,55.14
2022-08-20T10:30:49.552Z,55.08
2022-08-20T10:33:16.426Z,55.10
2022-08-20T10:35:43.295Z,54.78
2022-08-20T10:38:10.092Z,55.33
2022-08-20T10:40:36.995Z,54.45
2022-08-20T10:43:03.833Z,54.03
2022-08-20T10:45:30.714Z,53.98
2022-08-20T10:48:01.866Z,54.14
2022-08-20T10:50:30.559Z,53.68
2022-08-20T10:52:58.210Z,53.54
2022-08-20T10:55:25.189Z,53.45
2022-08-20T10:57:52.200Z,53.56
2022-08-20T11:00:19.633Z,54.22
2022-08-20T11:02:47.227Z,54.85
2022-08-20T11:05:14.437Z,54.84
2022-08-20T11:07:50.601Z,54.79
2022-08-20T11:10:26.633Z,55.11
2022-08-20T11:12:53.558Z,55.44
2022-08-20T11:15:20.589Z,55.36
2022-08-20T11:17:47.519Z,55.20
2022-08-20T11:20:17.292Z,55.51
2022-08-20T11:22:44.240Z,55.67
2022-08-20T11:25:11.781Z,55.73
2022-08-20T11:27:42.036Z,56.15
2022-08-20T11:30:13.606Z,56.07
2022-08-20T11:32:40.591Z,56.06
2022-08-20T11:35:38.488Z,56.21
2022-08-20T11:37:56.968Z,55.86
2022-08-20T11:40:25.313Z,56.57
2022-08-20T11:45:39.287Z,56.29
2022-08-20T11:48:06.038Z,56.92
2022-08-20T11:50:33.125Z,57.28
2022-08-20T11:53:01.163Z,57.60
2022-08-20T11:55:30.589Z,58.00
2022-08-20T11:58:00.142Z,57.78
2022-08-20T12:00:33.151Z,58.23
2022-08-20T12:03:06.663Z,58.50
2022-08-20T12:05:38.426Z,58.56
2022-08-20T12:08:06.099Z,59.04
2022-08-20T12:10:33.478Z,59.21
2022-08-20T12:13:00.361Z,58.92
2022-08-20T12:15:29.762Z,59.27
2022-08-20T12:17:56.800Z,59.78
2022-08-20T12:20:24.220Z,60.23
2022-08-20T12:22:51.281Z,60.15
2022-08-20T12:25:18.260Z,60.25
2022-08-20T12:27:46.616Z,60.49
2022-08-20T12:30:22.474Z,61.20
2022-08-20T12:32:50.361Z,60.64
2022-08-20T12:35:18.992Z,60.58
2022-08-20T12:37:47.138Z,60.76
2022-08-20T12:40:30.595Z,61.61
2022-08-20T12:43:03.683Z,62.08
2022-08-20T12:45:32.227Z,61.62
2022-08-20T12:48:08.714Z,61.68
2022-08-20T12:50:37.134Z,62.20
2022-08-20T12:53:04.939Z,61.97
2022-08-20T12:55:32.048Z,62.26
2022-08-20T12:58:00.967Z,62.35
2022-08-20T13:00:37.773Z,62.38
2022-08-20T13:03:06.547Z,62.30
2022-08-20T13:05:35.065Z,62.63
2022-08-20T13:08:03.285Z,62.41
2022-08-20T13:10:34.657Z,62.31
2022-08-20T13:13:02.307Z,62.08
2022-08-20T13:15:30.160Z,61.81
2022-08-20T13:18:00.027Z,61.64
2022-08-20T13:20:34.082Z,61.85
2022-08-20T13:23:03.340Z,61.49
2022-08-20T13:25:30.430Z,61.21
2022-08-20T13:27:59.392Z,60.97
2022-08-20T13:30:27.552Z,60.42
2022-08-20T13:32:54.572Z,60.83
2022-08-20T13:35:21.930Z,60.46
2022-08-20T13:37:50.369Z,60.53
2022-08-20T13:40:18.107Z,60.18
2022-08-20T13:42:45.352Z,60.06
2022-08-20T13:45:12.992Z,59.08
2022-08-20T13:47:42.037Z,59.11
2022-08-20T13:50:20.808Z,59.10
2022-08-20T13:52:48.315Z,59.14
2022-08-20T13:55:21.003Z,59.64
2022-08-20T13:57:48.779Z,59.72
2022-08-20T14:00:21.126Z,60.08
2022-08-20T14:02:53.673Z,60.22
2022-08-20T14:05:20.656Z,60.66
2022-08-20T14:07:49.247Z,61.28
2022-08-20T14:10:22.639Z,61.10
2022-08-20T14:12:49.963Z,61.58
2022-08-20T14:15:18.639Z,61.64
2022-08-20T14:17:54.241Z,62.16
2022-08-20T14:20:24.966Z,62.45
2022-08-20T14:22:56.610Z,62.41
2022-08-20T14:25:25.159Z,62.91
2022-08-20T14:27:52.977Z,63.01
2022-08-20T14:30:24.951Z,62.76
2022-08-20T14:32:52.061Z,62.99
2022-08-20T14:35:20.090Z,63.45
2022-08-20T14:37:49.402Z,63.82
2022-08-20T14:40:18.020Z,63.74
2022-08-20T14:42:47.770Z,63.94
2022-08-20T14:45:19.571Z,64.17
2022-08-20T14:47:53.579Z,64.57
2022-08-20T14:50:30.331Z,64.69
2022-08-20T14:52:58.299Z,65.05
2022-08-20T14:55:29.597Z,64.89
2022-08-20T14:57:56.433Z,65.03
2022-08-20T15:00:28.567Z,65.54
2022-08-20T15:02:55.583Z,65.79
2022-08-20T15:05:23.700Z,65.97
2022-08-20T15:07:51.537Z,65.80
2022-08-20T15:10:23.006Z,65.89
2022-08-20T15:12:49.813Z,65.91
2022-08-20T15:15:18.442Z,66.34
2022-08-20T15:17:48.765Z,66.60
2022-08-20T15:20:20.179Z,66.79
2022-08-20T15:22:49.264Z,67.34
2022-08-20T15:25:18.638Z,67.11
2022-08-20T15:27:45.820Z,67.31
2022-08-20T15:30:20.177Z,67.34
2022-08-20T15:32:50.279Z,67.50
2022-08-20T15:35:20.122Z,67.12
2022-08-20T15:37:50.736Z,67.37
2022-08-20T15:40:24.593Z,67.81
2022-08-20T15:42:54.632Z,68.15
2022-08-20T15:45:22.215Z,68.44
2022-08-20T15:48:09.830Z,68.47
2022-08-20T15:51:14.302Z,69.02
2022-08-20T15:54:02.849Z,68.89
2022-08-20T15:56:57.171Z,69.38
2022-08-20T15:59:45.233Z,69.46
2022-08-20T16:02:30.764Z,69.33
2022-08-20T16:05:03.593Z,69.34
2022-08-20T16:08:05.293Z,69.27
2022-08-20T16:10:40.865Z,69.06
2022-08-20T16:13:19.785Z,69.33
2022-08-20T16:15:49.684Z,69.27
2022-08-20T16:18:20.878Z,69.15
2022-08-20T16:20:50.289Z,69.17
2022-08-20T16:23:21.635Z,69.48
2022-08-20T16:26:28.172Z,69.36
2022-08-20T16:29:12.023Z,69.62
2022-08-20T16:32:03.572Z,69.60
2022-08-20T16:34:40.575Z,70.04
2022-08-20T16:37:29.618Z,69.60
2022-08-20T16:40:09.460Z,69.49
2022-08-20T16:42:42.498Z,69.48
2022-08-20T16:45:16.771Z,69.62
2022-08-20T16:47:46.926Z,69.63
2022-08-20T16:50:17.398Z,69.43
2022-08-20T16:52:46.709Z,69.59
2022-08-20T16:55:14.840Z,70.02
2022-08-20T16:57:41.764Z,70.29
2022-08-20T17:00:19.771Z,70.22
2022-08-20T17:02:51.059Z,70.59
2022-08-20T17:05:19.344Z,70.48
2022-08-20T17:07:52.843Z,70.63
2022-08-20T17:10:25.241Z,70.70
2022-08-20T17:12:55.252Z,70.84
2022-08-20T17:15:27.396Z,71.04
2022-08-20T17:17:55.377Z,71.03
2022-08-20T17:20:25.011Z,70.91
2022-08-20T17:23:11.421Z,71.15
2022-08-20T17:25:38.629Z,70.87
2022-08-20T17:28:18.268Z,70.84
2022-08-20T17:30:45.695Z,71.27
2022-08-20T17:33:36.917Z,71.20
2022-08-20T17:36:30.947Z,71.42
2022-08-20T17:39:00.579Z,71.53
2022-08-20T17:41:34.810Z,71.80
2022-08-20T17:44:08.948Z,71.35
2022-08-20T17:46:44.002Z,71.33
2022-08-20T17:49:17.414Z,71.44
2022-08-20T17:51:50.630Z,71.80
2022-08-20T17:54:22.380Z,72.05
2022-08-20T17:56:55.022Z,72.48
2022-08-20T18:00:00.342Z,72.38
2022-08-20T18:02:17.116Z,72.28
2022-08-20T18:04:44.804Z,72.25
2022-08-20T18:07:20.872Z,72.18
2022-08-20T18:09:57.555Z,72.19
2022-08-20T18:12:45.010Z,72.01
2022-08-20T18:15:20.264Z,72.13
2022-08-20T18:18:12.102Z,72.43
2022-08-20T18:21:16.318Z,72.39
2022-08-20T18:23:53.526Z,72.37
2022-08-20T18:26:29.741Z,72.17
2022-08-20T18:29:27.029Z,72.83
2022-08-20T18:31:56.949Z,73.41
2022-08-20T18:34:29.696Z,73.77
2022-08-20T18:37:20.810Z,73.58
2022-08-20T18:39:49.855Z,73.31
2022-08-20T18:42:35.478Z,73.02
2022-08-20T18:45:04.310Z,73.95
2022-08-20T18:47:33.879Z,73.98
2022-08-20T18:50:16.417Z,74.14
2022-08-20T18:53:11.343Z,74.15
2022-08-20T18:55:45.781Z,74.48
2022-08-20T18:58:34.817Z,75.01
2022-08-20T19:01:08.054Z,75.21
2022-08-20T19:03:35.946Z,75.05
2022-08-20T19:06:33.778Z,74.51
2022-08-20T19:09:29.678Z,74.54
2022-08-20T19:12:23.374Z,74.36
2022-08-20T19:14:54.853Z,73.94
2022-08-20T19:17:37.097Z,74.29
2022-08-20T19:20:07.586Z,74.50
2022-08-20T19:22:35.541Z,74.51
2022-08-20T19:25:02.907Z,74.66
2022-08-20T19:27:31.139Z,74.85
2022-08-20T19:29:58.007Z,75.03
2022-08-20T19:32:28.980Z,75.58
2022-08-20T19:35:00.783Z,75.54
2022-08-20T19:37:38.600Z,75.32
2022-08-20T19:40:40.037Z,75.20
2022-08-20T19:43:17.943Z,75.26
2022-08-20T19:45:51.829Z,75.71
2022-08-20T19:48:43.611Z,76.44
2022-08-20T19:51:22.234Z,76.14
2022-08-20T19:53:50.081Z,75.95
2022-08-20T19:56:23.885Z,76.43
2022-08-20T19:59:09.817Z,76.56
2022-08-20T20:01:37.255Z,77.06
2022-08-20T20:04:07.561Z,77.20
2022-08-20T20:06:43.977Z,77.40
2022-08-20T20:09:21.584Z,77.11
2022-08-20T20:11:56.175Z,77.57
2022-08-20T20:14:28.776Z,77.60
2022-08-20T20:16:56.800Z,78.02
2022-08-20T20:19:26.839Z,77.92
2022-08-20T20:22:18.914Z,77.97
2022-08-20T20:24:57.208Z,77.92
2022-08-20T20:27:27.433Z,78.14
2022-08-20T20:30:13.482Z,77.99
2022-08-20T20:32:44.478Z,77.11
2022-08-20T20:35:25.777Z,77.30
2022-08-20T20:38:31.107Z,76.96
2022-08-20T20:41:01.814Z,77.39
2022-08-20T20:43:41.382Z,77.46
2022-08-20T20:46:16.412Z,77.58
2022-08-20T20:48:43.157Z,77.80
2022-08-20T20:51:34.405Z,78.05
2022-08-20T20:54:07.003Z,78.60
2022-08-20T20:56:42.265Z,78.71
2022-08-20T20:59:11.033Z,78.68
2022-08-20T21:01:48.253Z,78.96
2022-08-20T21:04:22.704Z,79.57
2022-08-20T21:06:51.747Z,80.19
2022-08-20T21:09:19.999Z,80.26
2022-08-20T21:11:47.768Z,80.57
2022-08-20T21:14:15.690Z,80.95
2022-08-20T21:16:43.945Z,81.30
2022-08-20T21:19:12.421Z,81.57
2022-08-20T21:21:40.448Z,81.61
2022-08-20T21:24:08.350Z,82.35
2022-08-20T21:26:35.351Z,82.79
2022-08-20T21:29:02.571Z,83.37
2022-08-20T21:31:36.140Z,83.99
2022-08-20T21:34:03.030Z,84.95
2022-08-20T21:36:30.021Z,84.93
2022-08-20T21:38:56.987Z,86.53
2022-08-20T21:41:30.063Z,85.53
2022-08-20T21:43:58.901Z,85.51
2022-08-20T21:46:26.053Z,85.77
2022-08-20T21:48:52.853Z,85.86
2022-08-20T21:51:19.661Z,85.93
2022-08-20T21:53:47.034Z,85.38
2022-08-20T21:56:13.852Z,85.44
2022-08-20T21:58:40.703Z,85.73
2022-08-20T22:01:08.108Z,85.51
2022-08-20T22:03:38.930Z,85.54
2022-08-20T22:06:10.634Z,85.27
2022-08-20T22:08:37.945Z,85.10
2022-08-20T22:11:07.155Z,84.86
2022-08-20T22:13:35.044Z,85.22
2022-08-20T22:16:08.595Z,84.72
2022-08-20T22:18:36.252Z,85.12
2022-08-20T22:21:07.896Z,85.06
2022-08-20T22:23:34.749Z,84.88
2022-08-20T22:26:01.748Z,84.96
2022-08-20T22:28:28.608Z,84.92
2022-08-20T22:30:55.548Z,84.47
2022-08-20T22:33:23.715Z,84.53
2022-08-20T22:35:53.929Z,84.30
2022-08-20T22:38:21.781Z,84.06
2022-08-20T22:40:48.998Z,84.46
2022-08-20T22:43:16.066Z,84.33
2022-08-20T22:45:45.616Z,84.63
2022-08-20T22:48:16.600Z,84.58
2022-08-20T22:50:44.793Z,84.65
2022-08-20T22:53:13.938Z,84.74
2022-08-20T22:55:42.253Z,84.54
2022-08-20T22:58:10.237Z,84.51
2022-08-20T23:00:38.561Z,84.27
2022-08-20T23:03:06.893Z,84.49
2022-08-20T23:05:36.743Z,84.36
2022-08-20T23:08:06.089Z,84.24
2022-08-20T23:10:35.503Z,84.38
2022-08-20T23:13:02.332Z,84.47
2022-08-20T23:15:31.546Z,84.04
2022-08-20T23:18:06.396Z,84.59
2022-08-20T23:20:33.553Z,84.50
2022-08-20T23:23:00.387Z,84.60
2022-08-20T23:25:27.824Z,84.95
2022-08-20T23:28:03.415Z,84.48
2022-08-20T23:30:32.627Z,84.40
2022-08-20T23:33:01.540Z,84.49
2022-08-20T23:35:32.211Z,84.54
2022-08-20T23:38:00.828Z,84.09
2022-08-20T23:40:28.523Z,84.02
2022-08-20T23:42:57.241Z,84.48
2022-08-20T23:45:24.661Z,84.11
2022-08-20T23:47:52.158Z,84.00
2022-08-20T23:50:22.423Z,83.86
2022-08-20T23:52:52.838Z,83.63
2022-08-20T23:55:21.238Z,83.51
2022-08-20T23:57:48.248Z,83.47
